createdAt,value
2023-06-07T00:04:47.139Z,62.45
2023-06-07T00:09:49.599Z,63.00
2023-06-07T00:14:52.190Z,64.02
2023-06-07T00:19:56.831Z,64.64
2023-06-07T00:24:58.640Z,65.15
2023-06-07T00:30:01.445Z,65.33
2023-06-07T00:35:07.998Z,65.49
2023-06-07T00:40:10.794Z,65.66
2023-06-07T00:45:13.187Z,65.70
2023-06-07T00:50:15.476Z,65.63
2023-06-07T00:55:17.556Z,65.46
2023-06-07T01:00:21.066Z,66.67
2023-06-07T01:05:23.048Z,67.97
2023-06-07T01:10:25.237Z,68.85
2023-06-07T01:15:27.113Z,69.27
2023-06-07T01:20:32.402Z,69.60
2023-06-07T01:25:34.547Z,70.37
2023-06-07T01:30:36.593Z,71.00
2023-06-07T01:35:40.353Z,72.13
2023-06-07T01:40:44.181Z,73.09
2023-06-07T01:45:47.116Z,74.08
2023-06-07T01:50:49.054Z,74.68
2023-06-07T01:56:04.142Z,75.38
2023-06-07T02:01:09.493Z,76.04
2023-06-07T02:06:17.616Z,76.55
2023-06-07T02:11:23.079Z,76.98
2023-06-07T02:16:36.409Z,77.35
2023-06-07T02:21:38.721Z,77.60
2023-06-07T02:26:41.106Z,77.83
2023-06-07T02:31:42.905Z,78.16
2023-06-07T02:36:45.311Z,78.36
2023-06-07T02:41:47.155Z,78.49
2023-06-07T02:46:49.122Z,79.25
2023-06-07T02:51:51.451Z,80.30
2023-06-07T02:56:53.384Z,80.40
2023-06-07T03:01:55.494Z,80.10
2023-06-07T03:06:57.550Z,79.59
2023-06-07T03:11:59.427Z,79.39
2023-06-07T03:17:03.566Z,80.06
2023-06-07T03:22:07.172Z,79.92
2023-06-07T03:27:12.237Z,79.68
2023-06-07T03:32:14.312Z,79.06
2023-06-07T03:37:17.326Z,77.18
2023-06-07T03:42:18.979Z,74.78
2023-06-07T03:47:20.865Z,72.48
2023-06-07T03:52:23.041Z,69.38
2023-06-07T03:57:25.128Z,64.41
2023-06-07T04:02:28.889Z,59.95
2023-06-07T04:07:30.829Z,56.82
2023-06-07T04:12:32.600Z,53.52
2023-06-07T04:17:34.418Z,50.47
2023-06-07T04:22:36.577Z,49.84
2023-06-07T04:27:39.054Z,48.71
2023-06-07T04:32:41.074Z,47.27
2023-06-07T04:37:46.500Z,44.90
2023-06-07T04:42:56.280Z,43.83
2023-06-07T04:47:59.393Z,42.04
2023-06-07T04:53:03.484Z,40.28
2023-06-07T04:58:06.694Z,40.30
2023-06-07T05:03:14.101Z,38.39
2023-06-07T05:08:16.898Z,38.14
2023-06-07T05:13:18.784Z,37.05
2023-06-07T05:18:21.371Z,35.58
2023-06-07T05:23:23.402Z,35.10
2023-06-07T05:28:25.340Z,34.18
2023-06-07T05:33:31.631Z,34.11
2023-06-07T05:38:33.487Z,33.86
2023-06-07T05:43:36.802Z,32.85
2023-06-07T05:48:38.681Z,31.16
2023-06-07T05:53:40.694Z,29.36
2023-06-07T05:58:43.766Z,28.87
2023-06-07T06:03:45.748Z,27.96
2023-06-07T06:08:47.623Z,28.88
2023-06-07T06:13:51.029Z,28.80
2023-06-07T06:18:53.008Z,28.72
2023-06-07T06:23:54.739Z,28.12
2023-06-07T06:28:56.763Z,27.59
2023-06-07T06:33:58.946Z,27.26
2023-06-07T06:39:03.278Z,26.53
2023-06-07T06:44:05.262Z,26.17
2023-06-07T06:49:12.664Z,24.59
2023-06-07T06:54:15.665Z,23.91
2023-06-07T06:59:17.542Z,23.93
2023-06-07T07:04:19.472Z,24.02
2023-06-07T07:09:21.511Z,24.17
2023-06-07T07:14:23.282Z,24.38
2023-06-07T07:19:25.268Z,22.90
2023-06-07T07:24:27.596Z,22.41
2023-06-07T07:29:29.552Z,22.30
2023-06-07T07:34:31.489Z,21.98
2023-06-07T07:39:33.588Z,22.02
2023-06-07T07:44:35.698Z,21.15
2023-06-07T07:49:37.629Z,19.93
2023-06-07T07:54:40.041Z,19.47
2023-06-07T07:59:42.020Z,20.30
2023-06-07T08:04:43.939Z,20.35
2023-06-07T08:09:45.770Z,19.36
2023-06-07T08:14:47.761Z,18.19
2023-06-07T08:19:49.643Z,17.24
2023-06-07T08:24:51.813Z,17.08
2023-06-07T08:29:53.587Z,17.05
2023-06-07T08:34:56.385Z,16.12
2023-06-07T08:39:58.262Z,16.81
2023-06-07T08:45:01.169Z,16.61
2023-06-07T08:50:05.203Z,15.69
2023-06-07T08:55:13.434Z,16.11
2023-06-07T09:00:15.905Z,16.74
2023-06-07T09:05:22.752Z,15.99
2023-06-07T09:10:25.095Z,15.49
2023-06-07T09:15:28.820Z,15.17
2023-06-07T09:20:32.439Z,15.49
2023-06-07T09:25:34.834Z,16.05
2023-06-07T09:30:51.950Z,16.15
2023-06-07T09:36:11.868Z,15.91
2023-06-07T09:41:14.116Z,16.96
2023-06-07T09:46:17.352Z,17.87
2023-06-07T09:51:21.007Z,17.15
2023-06-07T09:56:24.816Z,17.53
2023-06-07T10:01:41.564Z,17.94
2023-06-07T10:06:45.640Z,17.50
2023-06-07T10:11:53.907Z,18.26
2023-06-07T10:17:04.289Z,19.85
2023-06-07T10:22:15.025Z,21.46
2023-06-07T10:27:22.047Z,20.33
2023-06-07T10:32:29.118Z,20.64
2023-06-07T10:37:35.052Z,21.68
2023-06-07T10:42:47.648Z,23.27
2023-06-07T10:47:50.386Z,24.17
2023-06-07T10:52:57.022Z,25.14
2023-06-07T10:58:02.056Z,25.76
2023-06-07T11:03:11.789Z,25.11
2023-06-07T11:08:31.781Z,24.35
2023-06-07T11:13:40.939Z,24.56
2023-06-07T11:19:11.870Z,23.44
2023-06-07T11:24:14.679Z,23.63
2023-06-07T11:29:21.638Z,23.84
2023-06-07T11:34:24.322Z,24.16
2023-06-07T11:39:33.679Z,24.12
2023-06-07T11:44:36.096Z,24.04
2023-06-07T11:49:41.838Z,24.34
2023-06-07T11:54:44.580Z,24.95
2023-06-07T11:59:46.554Z,24.81
2023-06-07T12:04:48.650Z,25.19
2023-06-07T12:09:51.284Z,26.06
2023-06-07T12:15:03.022Z,26.10
2023-06-07T12:20:13.362Z,25.92
2023-06-07T12:25:20.301Z,26.06
2023-06-07T12:30:32.943Z,25.95
2023-06-07T12:35:39.892Z,24.80
2023-06-07T12:40:42.108Z,24.52
2023-06-07T12:45:44.244Z,25.31
2023-06-07T12:50:48.294Z,24.00
2023-06-07T12:55:50.584Z,24.57
2023-06-07T13:00:55.031Z,24.68
2023-06-07T13:05:57.399Z,25.41
2023-06-07T13:10:59.226Z,25.82
2023-06-07T13:16:01.656Z,26.05
2023-06-07T13:21:04.057Z,26.39
2023-06-07T13:26:06.448Z,25.91
2023-06-07T13:31:08.320Z,25.26
2023-06-07T13:36:10.244Z,24.99
2023-06-07T13:41:12.378Z,25.03
2023-06-07T13:46:15.628Z,24.73
2023-06-07T13:51:18.599Z,25.31
2023-06-07T13:56:22.936Z,24.77
2023-06-07T14:01:25.044Z,24.62
2023-06-07T14:06:27.885Z,24.92
2023-06-07T14:11:30.912Z,24.71
2023-06-07T14:16:33.161Z,25.07
2023-06-07T14:21:36.716Z,25.54
2023-06-07T14:26:38.696Z,24.88
2023-06-07T14:31:40.829Z,25.29
2023-06-07T14:36:44.297Z,25.13
2023-06-07T14:41:46.782Z,24.98
2023-06-07T14:46:48.665Z,24.79
2023-06-07T14:51:50.660Z,25.86
2023-06-07T14:56:52.630Z,25.92
2023-06-07T15:01:54.602Z,26.29
2023-06-07T15:06:56.480Z,26.57
2023-06-07T15:11:59.684Z,26.77
2023-06-07T15:17:04.244Z,26.96
2023-06-07T15:22:07.538Z,27.55
2023-06-07T15:27:10.254Z,28.33
2023-06-07T15:32:12.938Z,28.74
2023-06-07T15:37:15.523Z,29.26
2023-06-07T15:42:18.430Z,29.76
2023-06-07T15:47:20.404Z,30.18
2023-06-07T15:52:23.707Z,30.94
2023-06-07T15:57:26.207Z,30.81
2023-06-07T16:02:28.553Z,30.44
2023-06-07T16:07:30.596Z,29.96
2023-06-07T16:12:32.757Z,29.33
2023-06-07T16:17:35.010Z,29.44
2023-06-07T16:22:37.871Z,29.64
2023-06-07T16:27:41.696Z,29.26
2023-06-07T16:32:44.004Z,29.46
2023-06-07T16:37:47.359Z,29.67
2023-06-07T16:42:49.654Z,29.94
2023-06-07T16:47:51.437Z,30.25
2023-06-07T16:52:53.414Z,30.85
2023-06-07T16:57:55.688Z,30.85
2023-06-07T17:02:58.156Z,31.10
2023-06-07T17:08:00.365Z,31.44
2023-06-07T17:13:02.813Z,31.54
2023-06-07T17:18:04.967Z,31.63
2023-06-07T17:23:07.329Z,31.90
2023-06-07T17:28:10.338Z,31.78
2023-06-07T17:33:12.558Z,31.81
2023-06-07T17:38:14.908Z,32.32
2023-06-07T17:43:16.905Z,32.60
2023-06-07T17:48:19.071Z,32.94
2023-06-07T17:53:20.972Z,33.87
2023-06-07T17:58:23.646Z,35.17
2023-06-07T18:03:26.058Z,36.04
2023-06-07T18:08:28.122Z,36.83
2023-06-07T18:13:29.994Z,37.81
2023-06-07T18:18:35.160Z,38.42
2023-06-07T18:23:37.306Z,38.67
2023-06-07T18:28:39.312Z,39.10
2023-06-07T18:33:49.906Z,39.16
2023-06-07T18:38:54.658Z,39.38
2023-06-07T18:44:01.632Z,39.76
2023-06-07T18:49:06.072Z,40.23
2023-06-07T18:54:08.669Z,40.44
2023-06-07T18:59:10.747Z,41.08
2023-06-07T19:04:14.252Z,41.46
2023-06-07T19:09:19.621Z,41.76
2023-06-07T19:14:22.058Z,41.92
2023-06-07T19:19:25.122Z,42.13
2023-06-07T19:24:28.039Z,42.22
2023-06-07T19:29:30.838Z,42.66
2023-06-07T19:34:35.991Z,42.99
2023-06-07T19:39:39.088Z,43.36
2023-06-07T19:44:43.090Z,43.71
2023-06-07T19:49:46.969Z,44.04
2023-06-07T19:54:50.747Z,44.46
2023-06-07T19:59:54.161Z,44.76
2023-06-07T20:04:56.246Z,45.40
2023-06-07T20:10:05.725Z,45.68
2023-06-07T20:15:11.912Z,46.33
2023-06-07T20:20:14.776Z,46.78
2023-06-07T20:25:17.564Z,47.27
2023-06-07T20:30:19.679Z,47.76
2023-06-07T20:35:22.256Z,48.06
2023-06-07T20:40:24.754Z,48.31
2023-06-07T20:45:27.453Z,48.81
2023-06-07T20:50:31.157Z,49.12
2023-06-07T20:55:36.424Z,49.44
2023-06-07T21:00:42.483Z,49.98
2023-06-07T21:05:45.191Z,50.79
2023-06-07T21:10:48.087Z,51.30
2023-06-07T21:15:54.252Z,51.96
2023-06-07T21:20:57.064Z,53.13
2023-06-07T21:25:59.267Z,53.93
2023-06-07T21:31:02.657Z,54.35
2023-06-07T21:36:04.951Z,54.83
2023-06-07T21:41:07.032Z,55.69
2023-06-07T21:46:09.479Z,56.27
2023-06-07T21:51:11.910Z,57.31
2023-06-07T21:56:13.795Z,58.06
2023-06-07T22:01:17.146Z,58.74
2023-06-07T22:06:20.462Z,59.40
2023-06-07T22:11:23.111Z,60.07
2023-06-07T22:16:26.229Z,60.68
2023-06-07T22:21:30.964Z,61.30
2023-06-07T22:26:33.559Z,61.85
2023-06-07T22:31:37.411Z,62.65
2023-06-07T22:36:42.537Z,63.28
2023-06-07T22:41:44.413Z,63.88
2023-06-07T22:46:46.640Z,64.41
2023-06-07T22:51:54.203Z,64.71
2023-06-07T22:56:57.010Z,64.54
2023-06-07T23:01:58.926Z,64.24
2023-06-07T23:07:02.905Z,64.25
2023-06-07T23:12:09.914Z,64.82
2023-06-07T23:17:12.391Z,65.60
2023-06-07T23:22:14.269Z,66.64
2023-06-07T23:27:16.456Z,67.29
2023-06-07T23:32:18.608Z,68.23
2023-06-07T23:37:20.593Z,68.34
2023-06-07T23:42:23.727Z,68.75
2023-06-07T23:47:26.067Z,69.06
2023-06-07T23:52:28.088Z,69.30
2023-06-07T23:57:30.963Z,69.92
